createdAt,value
2023-01-08T00:01:13.992Z,7.70
2023-01-08T00:03:41.481Z,7.70
2023-01-08T00:06:13.880Z,7.70
2023-01-08T00:08:40.706Z,7.60
2023-01-08T00:11:07.972Z,7.60
2023-01-08T00:13:34.919Z,7.60
2023-01-08T00:16:09.768Z,7.60
2023-01-08T00:18:36.760Z,7.50
2023-01-08T00:21:03.805Z,7.50
2023-01-08T00:23:30.782Z,7.50
2023-01-08T00:25:57.840Z,7.40
2023-01-08T00:28:24.624Z,7.40
2023-01-08T00:30:51.483Z,7.40
2023-01-08T00:33:18.374Z,7.30
2023-01-08T00:35:45.179Z,7.30
2023-01-08T00:38:12.491Z,7.30
2023-01-08T00:40:39.353Z,7.30
2023-01-08T00:43:06.972Z,7.30
2023-01-08T00:45:34.087Z,7.20
2023-01-08T00:48:00.900Z,7.20
2023-01-08T00:50:27.659Z,7.20
2023-01-08T00:52:54.866Z,7.20
2023-01-08T00:55:21.643Z,7.10
2023-01-08T00:57:48.392Z,7.10
2023-01-08T01:00:18.622Z,7.10
2023-01-08T01:02:45.650Z,7.10
2023-01-08T01:05:14.647Z,7.00
2023-01-08T01:07:42.856Z,7.00
2023-01-08T01:10:11.030Z,7.00
2023-01-08T01:12:39.079Z,6.90
2023-01-08T01:15:11.464Z,6.90
2023-01-08T01:17:40.431Z,6.90
2023-01-08T01:20:09.591Z,6.90
2023-01-08T01:22:36.876Z,6.90
2023-01-08T01:25:04.191Z,6.90
2023-01-08T01:27:30.946Z,6.80
2023-01-08T01:29:57.795Z,6.80
2023-01-08T01:32:24.516Z,6.70
2023-01-08T01:34:51.250Z,6.70
2023-01-08T01:37:18.208Z,6.70
2023-01-08T01:39:44.923Z,6.70
2023-01-08T01:42:16.239Z,6.70
2023-01-08T01:44:45.297Z,6.60
2023-01-08T01:47:17.878Z,6.60
2023-01-08T01:49:55.314Z,6.60
2023-01-08T01:52:23.274Z,6.60
2023-01-08T01:54:51.912Z,6.50
2023-01-08T01:57:18.965Z,6.40
2023-01-08T01:59:48.219Z,6.40
2023-01-08T02:02:16.963Z,6.40
2023-01-08T02:04:43.806Z,6.40
2023-01-08T02:07:21.369Z,6.40
2023-01-08T02:09:49.397Z,6.40
2023-01-08T02:12:31.016Z,6.40
2023-01-08T02:15:05.284Z,6.40
2023-01-08T02:18:10.138Z,6.40
2023-01-08T02:20:41.100Z,6.30
2023-01-08T02:23:17.082Z,6.30
2023-01-08T02:26:12.236Z,6.20
2023-01-08T02:29:02.581Z,6.20
2023-01-08T02:31:33.149Z,6.20
2023-01-08T02:33:59.841Z,6.10
2023-01-08T02:36:35.549Z,6.10
2023-01-08T02:39:02.142Z,6.10
2023-01-08T02:41:44.365Z,6.00
2023-01-08T02:44:17.276Z,6.00
2023-01-08T02:46:44.755Z,6.00
2023-01-08T02:49:15.325Z,5.90
2023-01-08T02:51:48.368Z,5.90
2023-01-08T02:54:21.311Z,5.90
2023-01-08T02:56:53.362Z,5.80
2023-01-08T02:59:22.493Z,5.80
2023-01-08T03:01:50.000Z,5.80
2023-01-08T03:04:20.103Z,5.80
2023-01-08T03:06:46.988Z,5.80
2023-01-08T03:09:15.375Z,5.80
2023-01-08T03:12:05.878Z,5.80
2023-01-08T03:14:47.012Z,5.80
2023-01-08T03:17:23.682Z,5.80
2023-01-08T03:19:55.018Z,5.80
2023-01-08T03:22:23.485Z,5.80
2023-01-08T03:24:53.121Z,5.70
2023-01-08T03:27:27.528Z,5.70
2023-01-08T03:29:58.161Z,5.70
2023-01-08T03:32:27.235Z,5.70
2023-01-08T03:34:56.256Z,5.70
2023-01-08T03:37:32.744Z,5.70
2023-01-08T03:40:24.760Z,5.70
2023-01-08T03:42:51.632Z,5.70
2023-01-08T03:45:18.645Z,5.70
2023-01-08T03:47:46.296Z,5.70
2023-01-08T03:50:20.219Z,5.70
2023-01-08T03:52:46.891Z,5.60
2023-01-08T03:55:13.604Z,5.60
2023-01-08T03:57:40.280Z,5.60
2023-01-08T04:00:07.511Z,5.60
2023-01-08T04:02:34.301Z,5.60
2023-01-08T04:05:01.160Z,5.60
2023-01-08T04:07:27.847Z,5.60
2023-01-08T04:09:54.567Z,5.60
2023-01-08T04:12:21.216Z,5.60
2023-01-08T04:14:47.846Z,5.60
2023-01-08T04:17:14.538Z,5.60
2023-01-08T04:19:42.136Z,5.60
2023-01-08T04:22:12.439Z,5.60
2023-01-08T04:24:39.267Z,5.50
2023-01-08T04:27:06.179Z,5.50
2023-01-08T04:29:32.915Z,5.60
2023-01-08T04:32:00.496Z,5.60
2023-01-08T04:34:27.202Z,5.50
2023-01-08T04:36:53.838Z,5.50
2023-01-08T04:39:20.520Z,5.50
2023-01-08T04:41:47.269Z,5.50
2023-01-08T04:44:13.899Z,5.50
2023-01-08T04:46:40.566Z,5.50
2023-01-08T04:49:07.349Z,5.50
2023-01-08T04:51:34.029Z,5.50
2023-01-08T04:54:00.677Z,5.50
2023-01-08T04:56:27.351Z,5.50
2023-01-08T04:58:54.077Z,5.50
2023-01-08T05:01:23.443Z,5.50
2023-01-08T05:03:54.899Z,5.50
2023-01-08T05:06:21.645Z,5.50
2023-01-08T05:08:48.678Z,5.50
2023-01-08T05:11:15.496Z,5.50
2023-01-08T05:13:42.208Z,5.50
2023-01-08T05:16:08.904Z,5.60
2023-01-08T05:18:35.668Z,5.60
2023-01-08T05:21:03.691Z,5.60
2023-01-08T05:23:31.591Z,5.60
2023-01-08T05:26:02.444Z,5.60
2023-01-08T05:28:29.919Z,5.60
2023-01-08T05:30:57.620Z,5.70
2023-01-08T05:33:24.703Z,5.70
2023-01-08T05:35:51.498Z,5.70
2023-01-08T05:38:18.403Z,5.70
2023-01-08T05:40:45.254Z,5.70
2023-01-08T05:43:12.323Z,5.70
2023-01-08T05:45:39.042Z,5.70
2023-01-08T05:48:06.741Z,5.80
2023-01-08T05:50:33.878Z,5.80
2023-01-08T05:53:00.556Z,5.90
2023-01-08T05:55:27.492Z,5.90
2023-01-08T05:57:54.194Z,5.90
2023-01-08T06:00:20.982Z,5.90
2023-01-08T06:02:48.291Z,5.90
2023-01-08T06:05:15.563Z,6.00
2023-01-08T06:07:42.278Z,6.00
2023-01-08T06:10:09.318Z,6.00
2023-01-08T06:12:36.094Z,6.10
2023-01-08T06:15:03.857Z,6.10
2023-01-08T06:17:30.602Z,6.10
2023-01-08T06:19:57.472Z,6.20
2023-01-08T06:22:24.144Z,6.20
2023-01-08T06:24:50.846Z,6.20
2023-01-08T06:27:17.578Z,6.20
2023-01-08T06:29:44.344Z,6.30
2023-01-08T06:32:11.154Z,6.30
2023-01-08T06:34:38.154Z,6.30
2023-01-08T06:37:04.910Z,6.30
2023-01-08T06:39:31.607Z,6.40
2023-01-08T06:41:58.418Z,6.40
2023-01-08T06:44:25.436Z,6.40
2023-01-08T06:46:52.202Z,6.40
2023-01-08T06:49:19.138Z,6.40
2023-01-08T06:51:46.151Z,6.40
2023-01-08T06:54:13.697Z,6.40
2023-01-08T06:56:52.982Z,6.40
2023-01-08T06:59:21.241Z,6.40
2023-01-08T07:01:48.317Z,6.40
2023-01-08T07:04:15.276Z,6.40
2023-01-08T07:06:42.011Z,6.40
2023-01-08T07:09:12.860Z,6.50
2023-01-08T07:11:40.404Z,6.50
2023-01-08T07:14:07.279Z,6.50
2023-01-08T07:16:34.268Z,6.50
2023-01-08T07:19:01.227Z,6.60
2023-01-08T07:21:27.983Z,6.60
2023-01-08T07:23:54.867Z,6.60
2023-01-08T07:26:21.632Z,6.60
2023-01-08T07:28:48.329Z,6.60
2023-01-08T07:31:15.084Z,6.70
2023-01-08T07:33:41.811Z,6.70
2023-01-08T07:36:08.906Z,6.70
2023-01-08T07:38:35.670Z,6.70
2023-01-08T07:41:02.348Z,6.70
2023-01-08T07:43:29.052Z,6.80
2023-01-08T07:45:55.854Z,6.70
2023-01-08T07:48:22.542Z,6.80
2023-01-08T07:50:49.227Z,6.80
2023-01-08T07:53:15.965Z,6.80
2023-01-08T07:55:42.704Z,6.80
2023-01-08T07:58:12.226Z,6.80
2023-01-08T08:00:39.298Z,6.80
2023-01-08T08:03:08.024Z,6.80
2023-01-08T08:05:35.153Z,6.80
2023-01-08T08:08:02.486Z,6.80
2023-01-08T08:10:29.234Z,6.80
2023-01-08T08:12:55.974Z,6.80
2023-01-08T08:15:22.662Z,6.70
2023-01-08T08:17:49.961Z,6.80
2023-01-08T08:20:16.967Z,6.80
2023-01-08T08:22:44.127Z,6.80
2023-01-08T08:25:11.468Z,6.90
2023-01-08T08:27:38.217Z,6.90
2023-01-08T08:30:05.639Z,6.90
2023-01-08T08:32:32.395Z,6.80
2023-01-08T08:34:59.176Z,6.80
2023-01-08T08:37:25.873Z,6.90
2023-01-08T08:39:52.746Z,6.90
2023-01-08T08:42:19.496Z,6.90
2023-01-08T08:44:46.183Z,6.90
2023-01-08T08:47:13.538Z,6.90
2023-01-08T08:49:40.232Z,7.00
2023-01-08T08:52:07.371Z,7.00
2023-01-08T08:54:34.070Z,7.00
2023-01-08T08:57:00.889Z,7.00
2023-01-08T08:59:27.561Z,7.00
2023-01-08T09:01:54.380Z,7.10
2023-01-08T09:04:21.229Z,7.10
2023-01-08T09:06:47.961Z,7.10
2023-01-08T09:09:14.767Z,7.10
2023-01-08T09:11:41.742Z,7.10
2023-01-08T09:14:08.428Z,7.20
2023-01-08T09:16:35.216Z,7.20
2023-01-08T09:19:01.997Z,7.20
2023-01-08T09:21:28.823Z,7.20
2023-01-08T09:23:56.996Z,7.30
2023-01-08T09:26:23.829Z,7.30
2023-01-08T09:28:50.517Z,7.40
2023-01-08T09:31:17.499Z,7.50
2023-01-08T09:33:44.196Z,7.50
2023-01-08T09:36:14.146Z,7.50
2023-01-08T09:38:40.955Z,7.50
2023-01-08T09:41:30.188Z,7.60
2023-01-08T09:43:59.883Z,7.60
2023-01-08T09:46:28.429Z,7.60
2023-01-08T09:49:04.343Z,7.60
2023-01-08T09:51:39.929Z,7.60
2023-01-08T09:54:06.854Z,7.60
2023-01-08T09:56:35.148Z,7.60
2023-01-08T09:59:03.860Z,7.50
2023-01-08T10:01:36.118Z,7.50
2023-01-08T10:04:20.027Z,7.50
2023-01-08T10:06:52.469Z,7.50
2023-01-08T10:09:23.826Z,7.50
2023-01-08T10:11:51.534Z,7.50
2023-01-08T10:14:24.688Z,7.50
2023-01-08T10:16:57.290Z,7.50
2023-01-08T10:19:29.356Z,7.50
2023-01-08T10:21:59.752Z,7.50
2023-01-08T10:24:35.847Z,7.40
2023-01-08T10:27:17.624Z,7.40
2023-01-08T10:29:44.456Z,7.40
2023-01-08T10:32:32.304Z,7.30
2023-01-08T10:35:04.397Z,7.30
2023-01-08T10:37:42.327Z,7.20
2023-01-08T10:40:51.621Z,7.20
2023-01-08T10:43:34.699Z,7.10
2023-01-08T10:46:05.726Z,7.10
2023-01-08T10:48:39.257Z,7.20
2023-01-08T10:51:20.976Z,7.10
2023-01-08T10:53:47.743Z,7.10
2023-01-08T10:56:28.351Z,7.10
2023-01-08T10:59:00.812Z,7.10
2023-01-08T11:01:30.732Z,7.20
2023-01-08T11:04:02.331Z,7.20
2023-01-08T11:06:45.447Z,7.20
2023-01-08T11:09:28.632Z,7.20
2023-01-08T11:11:55.733Z,7.20
2023-01-08T11:14:35.846Z,7.20
2023-01-08T11:17:11.072Z,7.20
2023-01-08T11:19:37.825Z,7.30
2023-01-08T11:22:26.700Z,7.20
2023-01-08T11:24:54.673Z,7.30
2023-01-08T11:27:24.317Z,7.40
2023-01-08T11:30:04.663Z,7.50
2023-01-08T11:33:04.529Z,7.60
2023-01-08T11:35:39.239Z,7.60
2023-01-08T11:38:07.772Z,7.70
2023-01-08T11:40:44.335Z,7.70
2023-01-08T11:43:18.686Z,7.70
2023-01-08T11:46:03.575Z,7.70
2023-01-08T11:49:01.125Z,7.80
2023-01-08T11:51:36.619Z,7.80
2023-01-08T11:54:25.135Z,7.70
2023-01-08T11:57:00.631Z,7.70
2023-01-08T11:59:45.815Z,7.80
2023-01-08T12:02:37.224Z,7.80
2023-01-08T12:05:28.189Z,7.80
2023-01-08T12:08:16.520Z,7.80
2023-01-08T12:10:55.217Z,7.80
2023-01-08T12:13:36.400Z,7.80
2023-01-08T12:16:18.101Z,7.80
2023-01-08T12:19:16.954Z,7.80
2023-01-08T12:21:53.335Z,7.80
2023-01-08T12:24:35.995Z,7.90
2023-01-08T12:27:48.436Z,7.80
2023-01-08T12:30:29.265Z,7.90
2023-01-08T12:33:11.843Z,8.00
2023-01-08T12:35:40.863Z,8.00
2023-01-08T12:38:28.839Z,8.00
2023-01-08T12:41:10.851Z,8.00
2023-01-08T12:44:02.565Z,8.00
2023-01-08T12:46:33.452Z,8.10
2023-01-08T12:49:02.146Z,8.00
2023-01-08T12:51:35.937Z,7.90
2023-01-08T12:54:27.087Z,7.90
2023-01-08T12:56:59.941Z,7.90
2023-01-08T12:59:51.959Z,7.80
2023-01-08T13:02:49.819Z,7.90
2023-01-08T13:05:19.409Z,7.90
2023-01-08T13:07:48.217Z,7.90
2023-01-08T13:10:48.155Z,7.80
2023-01-08T13:13:33.197Z,7.90
2023-01-08T13:16:26.303Z,7.80
2023-01-08T13:19:01.832Z,7.90
2023-01-08T13:21:56.908Z,7.80
2023-01-08T13:24:34.779Z,7.80
2023-01-08T13:27:32.302Z,7.80
2023-01-08T13:29:59.031Z,7.80
2023-01-08T13:32:44.800Z,7.80
2023-01-08T13:35:17.786Z,7.90
2023-01-08T13:38:17.043Z,7.80
2023-01-08T13:40:43.711Z,7.80
2023-01-08T13:43:23.655Z,7.80
2023-01-08T13:46:02.702Z,7.80
2023-01-08T13:48:39.454Z,7.70
2023-01-08T13:51:07.061Z,7.80
2023-01-08T13:53:37.183Z,7.70
2023-01-08T13:56:10.988Z,7.70
2023-01-08T13:59:00.983Z,7.70
2023-01-08T14:01:51.755Z,7.70
2023-01-08T14:04:23.206Z,7.70
2023-01-08T14:06:50.843Z,7.60
2023-01-08T14:09:24.887Z,7.60
2023-01-08T14:11:54.976Z,7.60
2023-01-08T14:14:24.219Z,7.60
2023-01-08T14:16:53.109Z,7.60
2023-01-08T14:19:22.803Z,7.70
2023-01-08T14:22:03.372Z,7.60
2023-01-08T14:24:30.216Z,7.60
2023-01-08T14:27:00.380Z,7.60
2023-01-08T14:29:29.551Z,7.60
2023-01-08T14:31:59.024Z,7.60
2023-01-08T14:34:32.043Z,7.50
2023-01-08T14:37:07.865Z,7.50
2023-01-08T14:39:36.402Z,7.50
2023-01-08T14:42:19.672Z,7.50
2023-01-08T14:44:46.477Z,7.50
2023-01-08T14:47:32.714Z,7.50
2023-01-08T14:49:59.920Z,7.50
2023-01-08T14:52:27.019Z,7.60
2023-01-08T14:54:57.370Z,7.50
2023-01-08T14:57:25.556Z,7.50
2023-01-08T14:59:58.377Z,7.50
2023-01-08T15:02:32.347Z,7.50
2023-01-08T15:05:16.064Z,7.50
2023-01-08T15:07:53.892Z,7.40
2023-01-08T15:10:41.374Z,7.40
2023-01-08T15:13:37.219Z,7.40
2023-01-08T15:16:11.051Z,7.40
2023-01-08T15:18:51.926Z,7.40
2023-01-08T15:21:26.100Z,7.40
2023-01-08T15:23:56.481Z,7.30
2023-01-08T15:26:24.086Z,7.30
2023-01-08T15:29:06.101Z,7.30
2023-01-08T15:31:48.284Z,7.30
2023-01-08T15:34:18.691Z,7.30
2023-01-08T15:36:50.629Z,7.30
2023-01-08T15:39:17.512Z,7.30
2023-01-08T15:41:44.369Z,7.30
2023-01-08T15:44:14.308Z,7.30
2023-01-08T15:46:41.070Z,7.30
2023-01-08T15:49:08.943Z,7.30
2023-01-08T15:51:43.565Z,7.30
2023-01-08T15:54:12.681Z,7.20
2023-01-08T15:56:42.245Z,7.20
2023-01-08T15:59:09.849Z,7.20
2023-01-08T16:01:37.421Z,7.20
2023-01-08T16:04:04.382Z,7.20
2023-01-08T16:06:31.730Z,7.20
2023-01-08T16:08:58.878Z,7.20
2023-01-08T16:11:27.118Z,7.20
2023-01-08T16:13:54.419Z,7.20
2023-01-08T16:16:21.393Z,7.20
2023-01-08T16:18:48.322Z,7.20
2023-01-08T16:21:15.133Z,7.20
2023-01-08T16:23:41.990Z,7.20
2023-01-08T16:26:14.702Z,7.20
2023-01-08T16:28:42.712Z,7.20
2023-01-08T16:31:10.038Z,7.20
2023-01-08T16:33:37.634Z,7.20
2023-01-08T16:36:08.426Z,7.20
2023-01-08T16:38:36.479Z,7.20
2023-01-08T16:41:04.455Z,7.20
2023-01-08T16:43:38.123Z,7.20
2023-01-08T16:46:13.744Z,7.20
2023-01-08T16:48:44.317Z,7.20
2023-01-08T16:51:11.848Z,7.20
2023-01-08T16:53:39.062Z,7.20
2023-01-08T16:56:06.373Z,7.20
2023-01-08T16:58:34.018Z,7.20
2023-01-08T17:01:01.851Z,7.20
2023-01-08T17:03:28.961Z,7.20
2023-01-08T17:05:55.724Z,7.20
2023-01-08T17:08:22.514Z,7.20
2023-01-08T17:10:49.287Z,7.20
2023-01-08T17:13:16.625Z,7.20
2023-01-08T17:15:44.899Z,7.20
2023-01-08T17:18:11.747Z,7.20
2023-01-08T17:20:39.985Z,7.20
2023-01-08T17:23:07.939Z,7.20
2023-01-08T17:25:34.767Z,7.20
2023-01-08T17:28:01.551Z,7.20
2023-01-08T17:30:28.355Z,7.10
2023-01-08T17:32:55.474Z,7.10
2023-01-08T17:35:22.279Z,7.10
2023-01-08T17:37:49.335Z,7.00
2023-01-08T17:40:16.210Z,7.00
2023-01-08T17:42:55.030Z,6.90
2023-01-08T17:45:21.967Z,6.90
2023-01-08T17:47:48.774Z,6.80
2023-01-08T17:50:18.153Z,6.80
2023-01-08T17:52:46.469Z,6.80
2023-01-08T17:55:13.382Z,6.80
2023-01-08T17:57:40.161Z,6.70
2023-01-08T18:00:07.843Z,6.70
2023-01-08T18:02:34.622Z,6.70
2023-01-08T18:05:01.461Z,6.70
2023-01-08T18:07:28.295Z,6.60
2023-01-08T18:09:55.064Z,6.60
2023-01-08T18:12:21.863Z,6.60
2023-01-08T18:14:48.728Z,6.60
2023-01-08T18:17:18.539Z,6.60
2023-01-08T18:19:45.388Z,6.60
2023-01-08T18:22:12.227Z,6.60
2023-01-08T18:24:38.966Z,6.60
2023-01-08T18:27:06.224Z,6.70
2023-01-08T18:29:33.189Z,6.70
2023-01-08T18:32:00.095Z,6.70
2023-01-08T18:34:26.916Z,6.70
2023-01-08T18:36:53.695Z,6.70
2023-01-08T18:39:20.469Z,6.70
2023-01-08T18:41:47.289Z,6.70
2023-01-08T18:44:15.021Z,6.70
2023-01-08T18:46:41.793Z,6.60
2023-01-08T18:49:08.837Z,6.60
2023-01-08T18:51:35.823Z,6.50
2023-01-08T18:54:02.697Z,6.50
2023-01-08T18:56:32.719Z,6.50
2023-01-08T18:59:00.087Z,6.40
2023-01-08T19:01:27.675Z,6.40
2023-01-08T19:03:54.692Z,6.30
2023-01-08T19:06:22.077Z,6.30
2023-01-08T19:08:49.013Z,6.30
2023-01-08T19:11:15.909Z,6.30
2023-01-08T19:13:42.829Z,6.30
2023-01-08T19:16:12.664Z,6.20
2023-01-08T19:18:39.948Z,6.20
2023-01-08T19:21:11.623Z,6.20
2023-01-08T19:23:38.389Z,6.20
2023-01-08T19:26:07.083Z,6.20
2023-01-08T19:28:35.530Z,6.20
2023-01-08T19:31:02.908Z,6.20
2023-01-08T19:33:29.803Z,6.20
2023-01-08T19:36:01.104Z,6.20
2023-01-08T19:38:27.886Z,6.30
2023-01-08T19:41:00.139Z,6.30
2023-01-08T19:43:33.120Z,6.20
2023-01-08T19:46:08.690Z,6.30
2023-01-08T19:48:36.226Z,6.30
2023-01-08T19:51:11.904Z,6.30
2023-01-08T19:53:38.916Z,6.30
2023-01-08T19:56:08.729Z,6.30
2023-01-08T19:58:35.878Z,6.30
2023-01-08T20:01:13.021Z,6.40
2023-01-08T20:03:40.686Z,6.40
2023-01-08T20:06:09.281Z,6.40
2023-01-08T20:08:36.207Z,6.40
2023-01-08T20:11:11.403Z,6.40
2023-01-08T20:13:38.834Z,6.40
2023-01-08T20:16:08.101Z,6.40
2023-01-08T20:18:35.593Z,6.30
2023-01-08T20:21:07.824Z,6.30
2023-01-08T20:23:44.755Z,6.30
2023-01-08T20:26:17.068Z,6.20
2023-01-08T20:28:45.299Z,6.20
2023-01-08T20:31:21.443Z,6.20
2023-01-08T20:33:51.215Z,6.10
2023-01-08T20:36:26.575Z,6.10
2023-01-08T20:38:59.463Z,6.00
2023-01-08T20:41:29.558Z,5.90
2023-01-08T20:44:01.931Z,5.90
2023-01-08T20:46:31.763Z,5.90
2023-01-08T20:49:00.556Z,5.90
2023-01-08T20:51:27.407Z,5.90
2023-01-08T20:53:56.671Z,5.80
2023-01-08T20:56:26.082Z,5.80
2023-01-08T20:58:53.226Z,5.70
2023-01-08T21:01:22.638Z,5.70
2023-01-08T21:03:57.923Z,5.70
2023-01-08T21:06:30.881Z,5.70
2023-01-08T21:09:00.663Z,5.70
2023-01-08T21:11:27.938Z,5.70
2023-01-08T21:13:55.721Z,5.80
2023-01-08T21:16:28.208Z,5.80
2023-01-08T21:18:55.557Z,5.90
2023-01-08T21:21:31.197Z,5.90
2023-01-08T21:24:01.616Z,5.90
2023-01-08T21:26:28.337Z,5.80
2023-01-08T21:28:55.337Z,5.80
2023-01-08T21:31:24.045Z,5.90
2023-01-08T21:33:50.817Z,5.90
2023-01-08T21:36:20.908Z,5.90
2023-01-08T21:38:49.258Z,6.00
2023-01-08T21:41:18.545Z,5.90
2023-01-08T21:43:45.236Z,6.00
2023-01-08T21:46:12.249Z,5.90
2023-01-08T21:48:39.289Z,6.00
2023-01-08T21:51:06.127Z,6.00
2023-01-08T21:53:36.475Z,6.00
2023-01-08T21:56:06.630Z,6.00
2023-01-08T21:58:35.617Z,6.00
2023-01-08T22:01:08.257Z,6.00
2023-01-08T22:03:35.013Z,6.00
2023-01-08T22:06:04.469Z,6.00
2023-01-08T22:08:31.551Z,6.00
2023-01-08T22:10:59.232Z,6.00
2023-01-08T22:13:26.681Z,6.00
2023-01-08T22:16:08.270Z,6.00
2023-01-08T22:18:35.906Z,6.00
2023-01-08T22:21:08.669Z,6.00
2023-01-08T22:23:35.979Z,6.00
2023-01-08T22:26:07.775Z,6.00
2023-01-08T22:28:34.681Z,6.10
2023-01-08T22:31:05.544Z,6.10
2023-01-08T22:33:32.264Z,6.10
2023-01-08T22:35:58.907Z,6.00
2023-01-08T22:38:25.592Z,6.00
2023-01-08T22:40:52.281Z,6.00
2023-01-08T22:43:19.070Z,6.00
2023-01-08T22:45:54.531Z,6.00
2023-01-08T22:48:21.367Z,6.00
2023-01-08T22:50:48.238Z,5.90
2023-01-08T22:53:15.302Z,5.90
2023-01-08T22:55:43.475Z,5.80
2023-01-08T22:58:10.164Z,5.80
2023-01-08T23:00:36.870Z,5.80
2023-01-08T23:03:04.394Z,5.70
2023-01-08T23:05:32.029Z,5.60
2023-01-08T23:07:58.726Z,5.60
2023-01-08T23:10:25.796Z,5.60
2023-01-08T23:12:52.563Z,5.50
2023-01-08T23:15:20.953Z,5.40
2023-01-08T23:17:52.589Z,5.40
2023-01-08T23:20:20.168Z,5.40
2023-01-08T23:22:47.321Z,5.40
2023-01-08T23:25:14.214Z,5.30
2023-01-08T23:27:40.938Z,5.30
2023-01-08T23:30:08.655Z,5.30
2023-01-08T23:32:35.304Z,5.30
2023-01-08T23:35:01.989Z,5.20
2023-01-08T23:37:28.716Z,5.20
2023-01-08T23:39:55.388Z,5.10
2023-01-08T23:42:22.075Z,5.10
2023-01-08T23:44:49.624Z,5.10
2023-01-08T23:47:16.354Z,5.00
2023-01-08T23:49:43.016Z,5.00
2023-01-08T23:52:09.697Z,5.00
2023-01-08T23:54:36.459Z,5.00
2023-01-08T23:57:03.599Z,5.00
2023-01-08T23:59:30.300Z,5.00
